createdAt,value
2024-03-25T00:00:41.253Z,6.36
2024-03-25T00:03:34.404Z,6.29
2024-03-25T00:06:04.181Z,6.21
2024-03-25T00:08:34.356Z,6.11
2024-03-25T00:11:03.156Z,6.12
2024-03-25T00:13:32.744Z,6.20
2024-03-25T00:16:08.898Z,6.23
2024-03-25T00:18:47.741Z,6.15
2024-03-25T00:21:16.339Z,6.18
2024-03-25T00:23:46.301Z,6.05
2024-03-25T00:26:15.190Z,6.02
2024-03-25T00:28:48.673Z,6.09
2024-03-25T00:31:18.454Z,6.08
2024-03-25T00:33:48.162Z,5.99
2024-03-25T00:36:17.578Z,5.91
2024-03-25T00:38:47.135Z,5.98
2024-03-25T00:41:17.740Z,6.06
2024-03-25T00:43:47.633Z,6.09
2024-03-25T00:46:17.805Z,6.13
2024-03-25T00:48:47.471Z,6.08
2024-03-25T00:51:17.052Z,6.04
2024-03-25T00:53:46.465Z,6.17
2024-03-25T00:56:15.978Z,6.09
2024-03-25T00:58:47.499Z,6.15
2024-03-25T01:01:16.620Z,6.18
2024-03-25T01:03:45.582Z,6.24
2024-03-25T01:06:15.083Z,6.31
2024-03-25T01:08:46.073Z,6.26
2024-03-25T01:11:14.799Z,6.34
2024-03-25T01:13:44.027Z,6.34
2024-03-25T01:16:16.061Z,6.29
2024-03-25T01:18:45.406Z,6.29
2024-03-25T01:21:15.407Z,6.25
2024-03-25T01:23:51.510Z,6.27
2024-03-25T01:26:20.750Z,6.28
2024-03-25T01:28:50.245Z,6.30
2024-03-25T01:31:20.788Z,6.32
2024-03-25T01:33:51.680Z,6.34
2024-03-25T01:36:22.160Z,6.29
2024-03-25T01:38:51.753Z,6.29
2024-03-25T01:41:28.746Z,6.26
2024-03-25T01:44:00.659Z,6.22
2024-03-25T01:46:30.863Z,6.23
2024-03-25T01:49:00.262Z,6.17
2024-03-25T01:51:30.566Z,6.20
2024-03-25T01:54:01.150Z,6.17
2024-03-25T01:56:37.359Z,6.10
2024-03-25T01:59:09.230Z,5.99
2024-03-25T02:01:40.068Z,6.01
2024-03-25T02:04:09.458Z,5.94
2024-03-25T02:06:42.802Z,5.90
2024-03-25T02:09:14.049Z,5.89
2024-03-25T02:11:43.818Z,5.90
2024-03-25T02:14:13.728Z,5.90
2024-03-25T02:16:43.250Z,5.85
2024-03-25T02:24:51.205Z,5.71
2024-03-25T02:28:06.033Z,5.67
2024-03-25T02:34:48.055Z,5.69
2024-03-25T02:38:35.126Z,5.59
2024-03-25T02:41:50.786Z,5.61
2024-03-25T02:44:36.121Z,5.56
2024-03-25T02:47:06.147Z,5.71
2024-03-25T02:49:36.027Z,5.72
2024-03-25T02:52:04.702Z,5.76
2024-03-25T02:54:33.560Z,5.79
2024-03-25T02:57:03.214Z,5.83
2024-03-25T02:59:33.370Z,5.82
2024-03-25T03:02:02.262Z,5.86
2024-03-25T03:04:31.732Z,5.83
2024-03-25T03:07:00.574Z,5.79
2024-03-25T03:09:29.561Z,5.79
2024-03-25T03:11:58.542Z,5.76
2024-03-25T03:14:27.236Z,5.75
2024-03-25T03:16:59.752Z,5.78
2024-03-25T03:19:30.224Z,5.81
2024-03-25T03:21:58.963Z,5.83
2024-03-25T03:24:27.721Z,5.85
2024-03-25T03:26:57.753Z,5.89
2024-03-25T03:29:27.536Z,5.86
2024-03-25T03:31:55.964Z,5.80
2024-03-25T03:34:26.068Z,5.76
2024-03-25T03:36:56.706Z,5.85
2024-03-25T03:39:26.096Z,5.91
2024-03-25T03:41:54.960Z,5.95
2024-03-25T03:44:25.948Z,6.00
2024-03-25T03:46:56.600Z,5.96
2024-03-25T03:49:25.884Z,5.95
2024-03-25T03:51:54.770Z,5.91
2024-03-25T03:54:24.065Z,5.96
2024-03-25T03:56:53.262Z,5.85
2024-03-25T03:59:23.860Z,5.84
2024-03-25T04:01:53.151Z,5.91
2024-03-25T04:04:22.536Z,5.92
2024-03-25T04:06:51.294Z,5.94
2024-03-25T04:09:34.920Z,5.98
2024-03-25T04:12:04.513Z,5.97
2024-03-25T04:14:34.218Z,6.01
2024-03-25T04:17:04.325Z,6.02
2024-03-25T04:19:33.182Z,6.06
2024-03-25T04:22:04.291Z,6.07
2024-03-25T04:24:32.942Z,6.01
2024-03-25T04:27:01.777Z,6.03
2024-03-25T04:29:30.757Z,6.00
2024-03-25T04:31:59.263Z,6.03
2024-03-25T04:34:28.549Z,5.94
2024-03-25T04:36:57.851Z,6.07
2024-03-25T04:39:26.480Z,6.08
2024-03-25T04:41:55.277Z,6.12
2024-03-25T04:44:24.025Z,6.14
2024-03-25T04:46:53.019Z,6.18
2024-03-25T04:49:22.581Z,6.18
2024-03-25T04:51:52.937Z,6.25
2024-03-25T04:54:21.629Z,6.19
2024-03-25T04:56:52.785Z,6.20
2024-03-25T04:59:22.803Z,6.25
2024-03-25T05:01:53.144Z,6.26
2024-03-25T05:04:22.196Z,6.27
2024-03-25T05:06:53.371Z,6.32
2024-03-25T05:09:22.197Z,6.36
2024-03-25T05:11:51.052Z,6.39
2024-03-25T05:14:20.073Z,6.39
2024-03-25T05:17:24.983Z,6.43
2024-03-25T05:19:52.140Z,6.29
2024-03-25T05:22:21.196Z,6.39
2024-03-25T05:24:51.484Z,6.43
2024-03-25T05:27:20.443Z,6.50
2024-03-25T05:30:32.025Z,6.57
2024-03-25T05:36:42.081Z,6.41
2024-03-25T05:40:19.242Z,6.47
2024-03-25T05:43:30.843Z,6.29
2024-03-25T05:46:03.071Z,6.38
2024-03-25T05:50:24.124Z,6.52
2024-03-25T05:56:02.844Z,6.45
2024-03-25T05:58:41.212Z,6.63
2024-03-25T06:05:41.218Z,6.66
2024-03-25T06:08:28.035Z,6.62
2024-03-25T06:11:29.560Z,6.77
2024-03-25T06:17:47.041Z,6.74
2024-03-25T06:23:55.099Z,6.76
2024-03-25T06:26:46.968Z,6.82
2024-03-25T06:29:16.045Z,6.91
2024-03-25T06:32:03.104Z,6.97
2024-03-25T06:34:32.068Z,6.93
2024-03-25T06:37:03.063Z,6.86
2024-03-25T06:39:31.476Z,6.99
2024-03-25T06:42:00.970Z,7.07
2024-03-25T06:44:31.737Z,7.07
2024-03-25T06:47:04.638Z,7.04
2024-03-25T06:49:35.893Z,7.10
2024-03-25T06:52:05.711Z,7.15
2024-03-25T06:54:34.664Z,7.06
2024-03-25T06:57:05.084Z,7.12
2024-03-25T06:59:37.367Z,7.04
2024-03-25T07:02:07.119Z,7.10
2024-03-25T07:04:37.336Z,7.16
2024-03-25T07:07:06.949Z,7.17
2024-03-25T07:09:38.064Z,7.13
2024-03-25T07:12:08.124Z,7.17
2024-03-25T07:14:37.999Z,7.08
2024-03-25T07:17:07.058Z,7.08
2024-03-25T07:19:35.995Z,7.04
2024-03-25T07:22:07.139Z,7.07
2024-03-25T07:24:36.682Z,7.04
2024-03-25T07:27:06.906Z,7.09
2024-03-25T07:29:36.470Z,7.05
2024-03-25T07:32:06.166Z,7.00
2024-03-25T07:34:35.535Z,7.04
2024-03-25T07:37:05.261Z,7.05
2024-03-25T07:39:34.217Z,7.22
2024-03-25T07:42:05.594Z,7.22
2024-03-25T07:44:35.252Z,7.33
2024-03-25T07:47:05.999Z,7.33
2024-03-25T07:49:35.330Z,7.47
2024-03-25T07:52:04.993Z,7.56
2024-03-25T07:54:39.788Z,7.46
2024-03-25T07:57:27.556Z,7.60
2024-03-25T08:00:16.076Z,7.70
2024-03-25T08:04:28.473Z,7.62
2024-03-25T08:07:00.932Z,7.69
2024-03-25T08:09:34.928Z,7.82
2024-03-25T08:12:26.213Z,7.86
2024-03-25T08:15:23.876Z,7.98
2024-03-25T08:18:05.808Z,8.14
2024-03-25T08:20:40.845Z,8.30
2024-03-25T08:23:10.596Z,8.32
2024-03-25T08:25:42.239Z,8.48
2024-03-25T08:28:12.007Z,8.38
2024-03-25T08:30:41.101Z,8.38
2024-03-25T08:33:10.644Z,8.50
2024-03-25T08:35:40.258Z,8.47
2024-03-25T08:38:10.786Z,8.51
2024-03-25T08:40:40.170Z,8.67
2024-03-25T08:43:09.422Z,8.70
2024-03-25T08:45:38.634Z,8.59
2024-03-25T08:48:08.298Z,8.80
2024-03-25T08:50:37.567Z,8.89
2024-03-25T08:53:07.392Z,8.99
2024-03-25T08:55:36.529Z,8.90
2024-03-25T08:58:06.273Z,8.95
2024-03-25T09:00:35.986Z,9.12
2024-03-25T09:03:06.294Z,9.07
2024-03-25T09:05:37.233Z,9.11
2024-03-25T09:08:07.645Z,9.21
2024-03-25T09:10:54.525Z,9.30
2024-03-25T09:13:26.681Z,8.96
2024-03-25T09:15:55.864Z,9.17
2024-03-25T09:18:24.517Z,9.09
2024-03-25T09:20:54.873Z,9.09
2024-03-25T09:23:24.085Z,9.11
2024-03-25T09:25:54.995Z,9.06
2024-03-25T09:28:24.385Z,8.96
2024-03-25T09:30:52.886Z,8.97
2024-03-25T09:33:23.870Z,8.99
2024-03-25T09:35:52.843Z,8.92
2024-03-25T09:38:22.438Z,8.97
2024-03-25T09:40:54.954Z,8.89
2024-03-25T09:43:44.383Z,8.91
2024-03-25T09:46:13.764Z,8.80
2024-03-25T09:48:44.149Z,8.78
2024-03-25T09:51:13.157Z,8.86
2024-03-25T09:53:43.348Z,8.71
2024-03-25T09:56:13.822Z,8.84
2024-03-25T09:58:45.135Z,8.87
2024-03-25T10:01:14.134Z,9.03
2024-03-25T10:03:43.537Z,9.10
2024-03-25T10:06:12.504Z,9.27
2024-03-25T10:08:42.896Z,9.38
2024-03-25T10:11:11.799Z,9.42
2024-03-25T10:13:45.058Z,9.52
2024-03-25T10:16:14.821Z,9.74
2024-03-25T10:18:45.365Z,9.61
2024-03-25T10:21:13.975Z,9.77
2024-03-25T10:23:46.635Z,9.87
2024-03-25T10:26:27.548Z,9.99
2024-03-25T10:29:00.827Z,10.00
2024-03-25T10:31:30.440Z,10.22
2024-03-25T10:34:00.722Z,10.31
2024-03-25T10:36:30.040Z,10.57
2024-03-25T10:39:09.422Z,10.62
2024-03-25T10:41:38.835Z,10.66
2024-03-25T10:44:10.866Z,10.90
2024-03-25T10:46:40.022Z,11.10
2024-03-25T10:49:25.691Z,11.23
2024-03-25T10:51:57.125Z,11.38
2024-03-25T10:54:27.776Z,11.56
2024-03-25T10:57:05.561Z,11.66
2024-03-25T10:59:42.964Z,11.71
2024-03-25T11:02:13.975Z,11.74
2024-03-25T11:04:46.386Z,11.81
2024-03-25T11:07:16.082Z,11.68
2024-03-25T11:09:54.463Z,12.09
2024-03-25T11:12:33.737Z,12.03
2024-03-25T11:15:05.671Z,12.25
2024-03-25T11:17:36.436Z,12.35
2024-03-25T11:20:14.821Z,12.35
2024-03-25T11:22:51.340Z,12.19
2024-03-25T11:25:22.671Z,11.78
2024-03-25T11:27:52.220Z,11.52
2024-03-25T11:30:28.414Z,11.39
2024-03-25T11:32:57.455Z,11.24
2024-03-25T11:35:27.118Z,10.64
2024-03-25T11:38:00.258Z,10.49
2024-03-25T11:40:29.105Z,10.56
2024-03-25T11:42:58.099Z,10.55
2024-03-25T11:45:27.281Z,10.65
2024-03-25T11:47:57.688Z,10.72
2024-03-25T11:50:26.960Z,10.75
2024-03-25T11:52:56.886Z,10.68
2024-03-25T11:55:29.174Z,10.12
2024-03-25T11:57:59.194Z,9.56
2024-03-25T12:00:28.460Z,9.36
2024-03-25T12:02:59.074Z,9.17
2024-03-25T12:05:28.856Z,9.30
2024-03-25T12:08:00.581Z,9.36
2024-03-25T12:10:47.848Z,9.43
2024-03-25T12:13:19.757Z,9.64
2024-03-25T12:15:49.560Z,10.05
2024-03-25T12:18:20.612Z,10.48
2024-03-25T12:20:50.802Z,11.34
2024-03-25T12:23:21.072Z,13.26
2024-03-25T12:25:53.648Z,15.22
2024-03-25T12:28:46.343Z,15.72
2024-03-25T12:31:24.938Z,16.03
2024-03-25T12:33:58.417Z,15.42
2024-03-25T12:36:35.173Z,15.20
2024-03-25T12:39:06.938Z,14.52
2024-03-25T12:41:38.007Z,13.92
2024-03-25T12:44:08.303Z,12.79
2024-03-25T12:46:37.808Z,12.28
2024-03-25T12:49:08.104Z,12.26
2024-03-25T12:51:37.726Z,12.33
2024-03-25T12:54:09.823Z,12.43
2024-03-25T12:56:39.834Z,12.60
2024-03-25T12:59:10.164Z,12.71
2024-03-25T13:01:39.685Z,13.91
2024-03-25T13:04:22.154Z,16.56
2024-03-25T13:07:15.799Z,17.71
2024-03-25T13:10:01.238Z,17.59
2024-03-25T13:12:35.220Z,17.10
2024-03-25T13:15:39.120Z,16.55
2024-03-25T13:18:25.872Z,15.35
2024-03-25T13:21:12.431Z,14.82
2024-03-25T13:24:06.172Z,14.81
2024-03-25T13:26:48.130Z,14.79
2024-03-25T13:29:29.179Z,16.31
2024-03-25T13:32:24.412Z,16.80
2024-03-25T13:35:12.077Z,17.25
2024-03-25T13:38:02.694Z,18.51
2024-03-25T13:40:59.755Z,19.56
2024-03-25T13:44:05.382Z,19.02
2024-03-25T13:47:20.158Z,18.15
2024-03-25T13:50:28.000Z,17.10
2024-03-25T13:53:26.787Z,16.41
2024-03-25T13:56:02.355Z,15.51
2024-03-25T13:58:38.916Z,15.28
2024-03-25T14:01:29.053Z,14.93
2024-03-25T14:04:01.477Z,14.46
2024-03-25T14:06:34.059Z,14.23
2024-03-25T14:09:13.814Z,13.79
2024-03-25T14:12:03.337Z,13.27
2024-03-25T14:14:33.185Z,13.28
2024-03-25T14:17:04.397Z,13.30
2024-03-25T14:19:34.223Z,13.14
2024-03-25T14:22:18.796Z,12.62
2024-03-25T14:24:48.440Z,12.50
2024-03-25T14:27:17.776Z,12.64
2024-03-25T14:29:47.251Z,12.65
2024-03-25T14:32:16.773Z,12.90
2024-03-25T14:34:46.572Z,13.39
2024-03-25T14:37:17.556Z,13.69
2024-03-25T14:39:49.605Z,13.92
2024-03-25T14:42:21.371Z,14.19
2024-03-25T14:44:52.221Z,15.15
2024-03-25T14:47:21.197Z,17.40
2024-03-25T14:50:07.707Z,19.04
2024-03-25T14:52:44.999Z,19.89
2024-03-25T14:55:16.750Z,20.00
2024-03-25T14:57:46.418Z,19.33
2024-03-25T15:00:25.590Z,18.72
2024-03-25T15:02:56.825Z,17.43
2024-03-25T15:05:27.004Z,16.46
2024-03-25T15:07:56.862Z,15.69
2024-03-25T15:10:32.724Z,15.23
2024-03-25T15:13:02.627Z,14.62
2024-03-25T15:15:39.497Z,14.39
2024-03-25T15:18:10.671Z,14.15
2024-03-25T15:20:40.363Z,13.92
2024-03-25T15:23:11.149Z,13.71
2024-03-25T15:25:43.726Z,13.53
2024-03-25T15:28:12.860Z,13.36
2024-03-25T15:30:41.953Z,12.82
2024-03-25T15:33:11.358Z,12.70
2024-03-25T15:35:43.941Z,12.25
2024-03-25T15:38:13.202Z,12.32
2024-03-25T15:40:43.449Z,12.15
2024-03-25T15:43:13.073Z,12.10
2024-03-25T15:45:42.826Z,12.09
2024-03-25T15:48:12.954Z,11.89
2024-03-25T15:50:41.434Z,12.02
2024-03-25T15:53:10.941Z,12.10
2024-03-25T15:55:40.880Z,12.08
2024-03-25T15:58:15.034Z,11.98
2024-03-25T16:00:44.795Z,11.93
2024-03-25T16:03:14.559Z,11.82
2024-03-25T16:05:43.944Z,11.65
2024-03-25T16:08:17.594Z,11.58
2024-03-25T16:10:48.199Z,11.40
2024-03-25T16:13:18.405Z,11.29
2024-03-25T16:15:48.346Z,11.28
2024-03-25T16:18:18.163Z,11.21
2024-03-25T16:20:48.229Z,11.24
2024-03-25T16:23:20.986Z,11.22
2024-03-25T16:25:50.114Z,11.09
2024-03-25T16:28:19.433Z,10.98
2024-03-25T16:30:49.375Z,10.83
2024-03-25T16:33:19.215Z,10.59
2024-03-25T16:35:48.431Z,10.37
2024-03-25T16:38:18.804Z,10.50
2024-03-25T16:40:50.429Z,10.65
2024-03-25T16:43:21.080Z,10.44
2024-03-25T16:45:51.893Z,10.29
2024-03-25T16:48:21.431Z,10.30
2024-03-25T16:50:51.680Z,10.43
2024-03-25T16:53:24.716Z,10.38
2024-03-25T16:55:55.861Z,10.52
2024-03-25T16:58:24.899Z,10.60
2024-03-25T17:00:54.880Z,10.67
2024-03-25T17:03:24.925Z,10.70
2024-03-25T17:06:05.494Z,10.70
2024-03-25T17:08:38.302Z,10.67
2024-03-25T17:11:08.580Z,10.68
2024-03-25T17:13:38.438Z,10.65
2024-03-25T17:16:07.563Z,10.61
2024-03-25T17:18:36.158Z,10.55
2024-03-25T17:21:04.199Z,10.46
2024-03-25T17:23:32.411Z,10.43
2024-03-25T17:26:03.978Z,10.42
2024-03-25T17:28:36.495Z,10.42
2024-03-25T17:31:05.281Z,10.26
2024-03-25T17:33:33.181Z,10.21
2024-03-25T17:36:01.032Z,10.21
2024-03-25T17:38:28.914Z,10.20
2024-03-25T17:40:56.731Z,10.15
2024-03-25T17:43:24.930Z,10.15
2024-03-25T17:45:53.740Z,10.13
2024-03-25T17:48:22.251Z,10.04
2024-03-25T17:51:02.067Z,9.95
2024-03-25T17:53:30.583Z,9.86
2024-03-25T17:56:00.188Z,9.81
2024-03-25T17:58:28.064Z,9.70
2024-03-25T18:00:58.146Z,9.69
2024-03-25T18:03:25.873Z,9.62
2024-03-25T18:05:54.046Z,9.49
2024-03-25T18:08:21.912Z,9.49
2024-03-25T18:10:49.631Z,9.49
2024-03-25T18:13:17.509Z,9.47
2024-03-25T18:15:50.232Z,9.43
2024-03-25T18:18:19.299Z,9.38
2024-03-25T18:20:47.897Z,9.40
2024-03-25T18:23:16.734Z,9.39
2024-03-25T18:25:46.045Z,9.30
2024-03-25T18:28:14.161Z,9.21
2024-03-25T18:30:42.212Z,9.11
2024-03-25T18:33:10.126Z,9.04
2024-03-25T18:35:39.904Z,9.00
2024-03-25T18:38:09.204Z,8.93
2024-03-25T18:40:37.138Z,8.76
2024-03-25T18:43:05.194Z,8.68
2024-03-25T18:45:33.554Z,8.67
2024-03-25T18:48:01.659Z,8.67
2024-03-25T18:50:29.614Z,8.60
2024-03-25T18:52:59.796Z,8.54
2024-03-25T18:55:27.679Z,8.50
2024-03-25T18:57:55.664Z,8.46
2024-03-25T19:25:38.640Z,6.44
2024-03-25T19:28:08.955Z,6.75
2024-03-25T19:30:38.332Z,6.64
2024-03-25T19:33:07.490Z,6.53
2024-03-25T19:35:36.476Z,6.46
2024-03-25T19:38:05.335Z,6.38
2024-03-25T19:40:34.191Z,6.47
2024-03-25T19:43:04.508Z,6.56
2024-03-25T19:45:33.989Z,6.47
2024-03-25T19:48:02.901Z,6.40
2024-03-25T19:50:31.648Z,6.29
2024-03-25T19:53:00.737Z,6.20
2024-03-25T19:55:29.495Z,6.21
2024-03-25T19:57:59.664Z,6.23
2024-03-25T20:00:28.762Z,6.28
2024-03-25T20:02:58.616Z,6.41
2024-03-25T20:05:27.547Z,6.39
2024-03-25T20:07:58.767Z,6.34
2024-03-25T20:10:27.567Z,6.52
2024-03-25T20:12:58.633Z,6.55
2024-03-25T20:15:31.248Z,6.57
2024-03-25T20:18:00.232Z,6.58
2024-03-25T20:20:32.610Z,6.69
2024-03-25T20:23:03.180Z,6.70
2024-03-25T20:25:32.506Z,6.79
2024-03-25T20:28:01.547Z,6.89
2024-03-25T20:30:30.303Z,6.86
2024-03-25T20:32:59.907Z,6.83
2024-03-25T20:35:31.878Z,6.73
2024-03-25T20:38:02.485Z,6.69
2024-03-25T20:40:32.032Z,6.72
2024-03-25T20:43:02.631Z,6.56
2024-03-25T20:45:33.590Z,6.47
2024-03-25T20:48:02.496Z,6.42
2024-03-25T20:50:31.953Z,6.45
2024-03-25T20:53:01.166Z,6.38
2024-03-25T20:55:31.671Z,6.25
2024-03-25T20:58:01.864Z,6.03
2024-03-25T21:00:31.260Z,5.96
2024-03-25T21:03:00.668Z,5.91
2024-03-25T21:05:29.814Z,5.88
2024-03-25T21:07:59.348Z,5.82
2024-03-25T21:10:28.271Z,5.72
2024-03-25T21:12:57.574Z,5.74
2024-03-25T21:15:26.774Z,5.66
2024-03-25T21:17:55.854Z,5.56
2024-03-25T21:20:25.175Z,5.50
2024-03-25T21:22:53.625Z,5.38
2024-03-25T21:25:22.988Z,5.23
2024-03-25T21:27:51.424Z,5.12
2024-03-25T21:30:20.186Z,5.22
2024-03-25T21:32:50.239Z,5.22
2024-03-25T21:35:19.985Z,5.09
2024-03-25T21:37:49.090Z,5.00
2024-03-25T21:40:18.051Z,4.93
2024-03-25T21:42:47.468Z,5.07
2024-03-25T21:45:16.566Z,5.02
2024-03-25T21:47:45.568Z,4.99
2024-03-25T21:50:15.813Z,4.91
2024-03-25T21:52:44.850Z,4.83
2024-03-25T21:55:13.874Z,4.82
2024-03-25T21:57:43.340Z,4.94
2024-03-25T22:00:14.535Z,4.96
2024-03-25T22:02:45.376Z,4.90
2024-03-25T22:05:14.916Z,4.88
2024-03-25T22:07:45.831Z,4.84
2024-03-25T22:10:15.397Z,4.80
2024-03-25T22:12:44.939Z,4.80
2024-03-25T22:15:13.790Z,4.78
2024-03-25T22:17:42.584Z,4.79
2024-03-25T22:20:11.607Z,4.92
2024-03-25T22:22:40.323Z,5.12
2024-03-25T22:25:08.978Z,5.21
2024-03-25T22:27:37.568Z,5.28
2024-03-25T22:30:07.355Z,5.29
2024-03-25T22:32:39.039Z,5.30
2024-03-25T22:35:08.287Z,5.37
2024-03-25T22:37:41.283Z,5.37
2024-03-25T22:40:11.317Z,5.34
2024-03-25T22:42:41.847Z,5.36
2024-03-25T22:45:10.644Z,5.37
2024-03-25T22:47:39.822Z,5.42
2024-03-25T22:50:08.847Z,5.29
2024-03-25T22:52:39.149Z,5.25
2024-03-25T22:55:08.620Z,5.30
2024-03-25T22:57:39.158Z,5.30
2024-03-25T23:00:15.615Z,5.25
2024-03-25T23:02:45.161Z,5.17
2024-03-25T23:05:14.029Z,5.14
2024-03-25T23:07:43.528Z,5.19
2024-03-25T23:10:12.120Z,5.19
2024-03-25T23:12:41.300Z,5.15
2024-03-25T23:15:11.466Z,5.16
2024-03-25T23:17:40.319Z,5.15
2024-03-25T23:20:10.399Z,4.96
2024-03-25T23:22:39.357Z,4.86
2024-03-25T23:25:10.692Z,4.85
2024-03-25T23:27:40.207Z,4.89
2024-03-25T23:30:10.195Z,4.87
2024-03-25T23:32:39.310Z,4.90
2024-03-25T23:35:09.943Z,4.90
2024-03-25T23:37:39.001Z,4.85
2024-03-25T23:40:09.325Z,4.76
2024-03-25T23:42:38.255Z,4.78
2024-03-25T23:45:08.585Z,4.81
2024-03-25T23:47:38.738Z,4.76
2024-03-25T23:50:08.345Z,4.68
2024-03-25T23:52:37.361Z,4.67
2024-03-25T23:55:06.919Z,4.53
2024-03-25T23:57:37.413Z,4.32
